METAR Data
IDs: Format: Raw Decoded Include TAF

Data at: 0109 UTC 25 Mar 2019

KCNC 250055Z AUTO 02010KT 1 1/2SM BR OVC003 09/08 A3003 RMK AO2 P0001
KCNC 250035Z AUTO 02008KT 3/4SM BR OVC004 09/09 A3003 RMK AO2
KCNC 250015Z AUTO 01010KT 3/4SM BR OVC004 09/09 A3002 RMK AO2
KCNC 242355Z AUTO 01009KT 1SM BR OVC006 09/09 A3001 RMK AO2
KCNC 242335Z AUTO 01011KT 1 1/2SM BR OVC007 09/09 A3000 RMK AO2
KCNC 242315Z AUTO 01009KT 5SM BR OVC009 10/10 A3000 RMK AO2
KCNC 242255Z AUTO 36009KT 6SM BR OVC010 10/10 A2999 RMK AO2
KCNC 242235Z AUTO 36009KT 7SM OVC011 10/10 A2999 RMK AO2
KCNC 242215Z AUTO 01010KT 7SM OVC008 10/10 A2998 RMK AO2
KCNC 242155Z AUTO 01009KT 7SM BKN008 OVC013 10/10 A2998 RMK AO2
KCNC 242135Z AUTO 02008KT 7SM BKN008 OVC012 10/10 A2997 RMK AO2
KCNC 242115Z AUTO 03008KT 8SM OVC008 10/10 A2997 RMK AO2
KCNC 242055Z AUTO 03007G12KT 8SM BKN008 OVC013 10/10 A2996 RMK AO2
KCNC 242035Z AUTO 36008KT 8SM SCT008 BKN013 11/10 A2996 RMK AO2
KCNC 242015Z AUTO 01008KT 9SM OVC012 11/11 A2996 RMK AO2
KCNC 241955Z AUTO 06006KT 10SM OVC013 11/11 A2995 RMK AO2
KCNC 241935Z AUTO 05006KT 9SM FEW008 BKN013 11/11 A2995 RMK AO2
KCNC 241915Z AUTO 00000KT 11/11 A2995 RMK AO2
KCNC 241855Z AUTO 08006KT 7SM SCT006 SCT060 SCT070 10/10 A2996 RMK AO2 P0003
KCNC 241835Z AUTO 08006KT 4SM -DZ FEW005 FEW060 FEW070 10/10 A2996 RMK AO2
KCNC 241815Z AUTO 06007KT 2 1/2SM -RA FEW013 SCT050 09/09 A2996 RMK AO2
KCNC 241755Z AUTO 08004KT 4SM -RA SCT006 BKN013 BKN055 09/09 A2997 RMK AO2 P0003
KCNC 241735Z AUTO 00000KT 2SM -RA BKN007 BKN013 09/09 A2997 RMK AO2
KCNC 241715Z AUTO 13005G12KT 6SM BR OVC006 09/08 A2999 RMK AO2
KCNC 241655Z AUTO 13007KT 6SM BR BKN006 BKN019 BKN041 09/09 A2998 RMK AO2 P0006
KCNC 241635Z AUTO 08006KT 4SM BR FEW033 FEW042 SCT065 09/09 A2998 RMK AO2
KCNC 241615Z AUTO 04011KT 1 1/4SM -RA BKN012 BKN021 OVC032 08/08 A2997 RMK AO2
KCNC 241555Z AUTO 13007KT 8SM OVC013 08/08 A2999 RMK AO2
KCNC 241535Z AUTO 12007KT 8SM OVC013 08/08 A2999 RMK AO2
KCNC 241515Z AUTO 11006KT 9SM OVC012 08/08 A2999 RMK AO2
KCNC 241455Z AUTO 12006KT 9SM OVC014 08/08 A2999 RMK AO2
KCNC 241435Z AUTO 10005KT 9SM OVC015 08/08 A2998 RMK AO2
KCNC 241415Z AUTO 08006KT 8SM OVC014 08/08 A2997 RMK AO2
KCNC 241355Z AUTO 07006KT 9SM OVC014 08/08 A2997 RMK AO2 P0001
KCNC 241335Z AUTO 10006KT 7SM BKN016 BKN047 BKN060 08/07 A2997 RMK AO2
KCNC 241315Z AUTO 12006KT 8SM OVC016 07/07 A2997 RMK AO2
KCNC 241255Z AUTO 13009KT 6SM BR OVC017 08/08 A2997 RMK AO2
KCNC 241235Z AUTO 13008KT 9SM OVC018 08/08 A2997 RMK AO2
KCNC 241215Z AUTO 13006KT 9SM OVC018 07/07 A2997 RMK AO2
KCNC 241155Z AUTO 14006KT 10SM SCT011 OVC020 08/07 A2998 RMK AO2
KCNC 241135Z AUTO 14006KT 10SM SCT013 OVC022 08/07 A2998 RMK AO2
KCNC 241115Z AUTO 14007KT 10SM FEW014 OVC022 08/08 A2997 RMK AO2
KCNC 241055Z AUTO 13008KT 10SM SCT014 OVC023 08/07 A2998 RMK AO2
KCNC 241035Z AUTO 14007KT 10SM OVC021 08/07 A2998 RMK AO2
KCNC 241015Z AUTO 14007KT 10SM OVC019 07/07 A2999 RMK AO2
KCNC 240955Z AUTO 14007G12KT 10SM OVC018 07/07 A2999 RMK AO2
KCNC 240935Z AUTO 13008KT 10SM OVC020 07/07 A2999 RMK AO2
KCNC 240915Z AUTO 14007KT 10SM SCT021 BKN028 OVC035 07/07 A2999 RMK AO2
KCNC 240855Z AUTO 14008KT 10SM FEW029 BKN039 OVC045 07/07 A3000 RMK AO2
KCNC 240835Z AUTO 14010KT 10SM OVC038 07/07 A3000 RMK AO2
KCNC 240815Z AUTO 14009G14KT 10SM BKN038 BKN060 OVC075 07/07 A3000 RMK AO2
KCNC 240755Z AUTO 14009KT 10SM FEW003 BKN040 OVC095 07/07 A3001 RMK AO2
KCNC 240735Z AUTO 14010KT 6SM BR FEW003 BKN036 OVC075 08/07 A3001 RMK AO2
KCNC 240715Z AUTO 15010KT 10SM BKN037 OVC042 08/07 A3002 RMK AO2
KCNC 240655Z AUTO 15009KT 8SM OVC039 08/07 A3003 RMK AO2
KCNC 240635Z AUTO 14010KT 10SM OVC036 08/07 A3003 RMK AO2
KCNC 240615Z AUTO 15010KT 9SM FEW024 SCT031 OVC038 08/06 A3004 RMK AO2
KCNC 240555Z AUTO 15011KT 10SM FEW025 BKN032 OVC040 08/05 A3004 RMK AO2 P0001
KCNC 240535Z AUTO 15010KT 10SM FEW034 BKN040 OVC047 08/05 A3004 RMK AO2
KCNC 240515Z AUTO 15009KT 8SM -RA FEW035 BKN047 OVC065 08/04 A3005 RMK AO2
KCNC 240455Z AUTO 14008KT 10SM SCT050 BKN060 OVC100 08/04 A3005 RMK AO2
KCNC 240435Z AUTO 14009KT 10SM SCT042 BKN050 OVC060 09/03 A3005 RMK AO2
KCNC 240415Z AUTO 14010KT 10SM OVC043 09/03 A3005 RMK AO2
KCNC 240355Z AUTO 13007KT 10SM SCT044 BKN060 OVC070 08/04 A3006 RMK AO2
KCNC 240335Z AUTO 12009KT 10SM FEW042 OVC055 08/04 A3006 RMK AO2
KCNC 240315Z AUTO 12008KT 10SM SCT037 BKN050 OVC060 08/04 A3006 RMK AO2
KCNC 240255Z AUTO 12009KT 10SM OVC036 08/04 A3007 RMK AO2
KCNC 240235Z AUTO 12010KT 9SM FEW026 BKN038 OVC049 08/05 A3007 RMK AO2
KCNC 240215Z AUTO 12009KT 8SM FEW039 BKN048 OVC070 08/05 A3007 RMK AO2
KCNC 240155Z AUTO 11009KT 7SM -RA BKN050 BKN060 OVC070 08/04 A3006 RMK AO2
KCNC 240135Z AUTO 12009KT 9SM FEW043 BKN065 OVC075 09/04 A3007 RMK AO2
KCNC 240115Z AUTO 12007KT 10SM FEW044 OVC065 09/04 A3007 RMK AO2
KCNC 240055Z AUTO 11010KT 10SM FEW045 SCT055 OVC065 09/04 A3006 RMK AO2
KCNC 240035Z AUTO 12010KT 9SM FEW048 OVC065 10/03 A3007 RMK AO2
KCNC 240015Z AUTO 12011G16KT 10SM OVC070 10/03 A3007 RMK AO2
KCNC 232355Z AUTO 12011KT 10SM SCT065 BKN080 BKN095 10/03 A3008 RMK AO2
KCNC 232335Z AUTO 12012KT 10SM OVC080 11/02 A3008 RMK AO2
KCNC 232315Z AUTO 12012KT 10SM OVC090 11/03 A3008 RMK AO2
KCNC 232255Z AUTO 12011G16KT 10SM OVC090 11/03 A3009 RMK AO2
KCNC 232235Z AUTO 12011KT 10SM OVC095 11/02 A3009 RMK AO2
KCNC 232215Z AUTO 12014G19KT 10SM OVC095 12/02 A3010 RMK AO2
KCNC 232155Z AUTO 12014G21KT 10SM BKN090 12/02 A3009 RMK AO2
KCNC 232135Z AUTO 11012KT 10SM BKN090 12/02 A3009 RMK AO2
KCNC 232115Z AUTO 11014KT 10SM BKN090 12/02 A3010 RMK AO2
KCNC 232055Z AUTO 11010KT 10SM BKN095 12/02 A3011 RMK AO2
KCNC 232035Z AUTO 10012G17KT 10SM BKN100 12/02 A3010 RMK AO2
KCNC 232015Z AUTO 10011KT 10SM FEW090 SCT110 12/02 A3011 RMK AO2
KCNC 231955Z AUTO 11013KT 10SM BKN090 BKN110 12/02 A3012 RMK AO2
KCNC 231935Z AUTO 12010KT 10SM OVC095 12/02 A3013 RMK AO2
KCNC 231915Z AUTO 13007KT 10SM SCT100 12/02 A3014 RMK AO2
KCNC 231855Z AUTO 11009KT 10SM 12/02 A3015 RMK AO2
KCNC 231835Z AUTO 13009KT 12/02 A3016 RMK AO2 PWINO
KCNC 231815Z AUTO 14012KT 10SM FEW120 12/02 A3017 RMK AO2
KCNC 231755Z AUTO 14010KT 10SM FEW120 12/02 A3018 RMK AO2
KCNC 231735Z AUTO 15010KT 10SM CLR 11/02 A3018 RMK AO2
KCNC 231715Z AUTO 15011KT 10SM CLR 11/02 A3017 RMK AO2
KCNC 231655Z AUTO 14011KT 10SM CLR 11/02 A3018 RMK AO2
KCNC 231635Z AUTO 14013KT 10SM CLR 10/02 A3018 RMK AO2
KCNC 231615Z AUTO 13011KT 10SM CLR 10/03 A3018 RMK AO2
KCNC 231555Z AUTO 13010KT 10SM CLR 08/02 A3019 RMK AO2
KCNC 231535Z AUTO 14008KT 10SM CLR 08/02 A3019 RMK AO2
KCNC 231515Z AUTO 14013KT 10SM CLR 08/02 A3020 RMK AO2
KCNC 231455Z AUTO 14010G15KT 10SM CLR 08/02 A3020 RMK AO2
KCNC 231435Z AUTO 15011KT 10SM CLR 07/02 A3021 RMK AO2
KCNC 231415Z AUTO 15010KT 10SM CLR 06/01 A3020 RMK AO2
KCNC 231355Z AUTO 14007G13KT 10SM CLR 05/00 A3021 RMK AO2
KCNC 231335Z AUTO 13009KT 10SM CLR 04/M00 A3021 RMK AO2
KCNC 231315Z AUTO 13006KT 10SM CLR 03/M00 A3021 RMK AO2